sensor_id;sensor_type;location;lat;lon;timestamp;P1;durP1;ratioP1;P2;durP2;ratioP2
52414;SDS011;38340;52.964;6.086;2022-09-09T00:01:35;12.93;;;9.13;;
52414;SDS011;38340;52.964;6.086;2022-09-09T00:04:29;13.32;;;9.73;;
52414;SDS011;38340;52.964;6.086;2022-09-09T00:06:59;14.82;;;8.57;;
52414;SDS011;38340;52.964;6.086;2022-09-09T00:15:18;12.90;;;8.48;;
52414;SDS011;38340;52.964;6.086;2022-09-09T00:20:28;14.63;;;8.25;;
52414;SDS011;38340;52.964;6.086;2022-09-09T00:23:08;14.70;;;8.75;;
52414;SDS011;38340;52.964;6.086;2022-09-09T00:28:20;16.08;;;7.95;;
52414;SDS011;38340;52.964;6.086;2022-09-09T00:30:49;13.52;;;7.95;;
52414;SDS011;38340;52.964;6.086;2022-09-09T00:33:17;10.73;;;7.28;;
52414;SDS011;38340;52.964;6.086;2022-09-09T00:35:50;14.05;;;7.97;;
52414;SDS011;38340;52.964;6.086;2022-09-09T00:38:34;8.68;;;7.43;;
52414;SDS011;38340;52.964;6.086;2022-09-09T00:41:09;14.18;;;8.05;;
52414;SDS011;38340;52.964;6.086;2022-09-09T00:43:42;14.27;;;7.05;;
52414;SDS011;38340;52.964;6.086;2022-09-09T01:03:22;9.13;;;6.97;;
52414;SDS011;38340;52.964;6.086;2022-09-09T01:11:35;12.55;;;8.30;;
52414;SDS011;38340;52.964;6.086;2022-09-09T01:16:56;11.00;;;7.88;;
52414;SDS011;38340;52.964;6.086;2022-09-09T01:19:35;14.60;;;8.88;;
52414;SDS011;38340;52.964;6.086;2022-09-09T01:22:09;12.45;;;9.13;;
52414;SDS011;38340;52.964;6.086;2022-09-09T01:24:42;12.35;;;8.77;;
52414;SDS011;38340;52.964;6.086;2022-09-09T01:27:31;13.05;;;8.70;;
52414;SDS011;38340;52.964;6.086;2022-09-09T01:29:58;13.18;;;8.82;;
52414;SDS011;38340;52.964;6.086;2022-09-09T01:35:19;14.13;;;9.07;;
52414;SDS011;38340;52.964;6.086;2022-09-09T01:38:10;15.85;;;9.95;;
52414;SDS011;38340;52.964;6.086;2022-09-09T01:40:36;14.20;;;8.95;;
52414;SDS011;38340;52.964;6.086;2022-09-09T01:43:02;13.30;;;8.63;;
52414;SDS011;38340;52.964;6.086;2022-09-09T01:45:29;13.07;;;8.70;;
52414;SDS011;38340;52.964;6.086;2022-09-09T01:47:55;15.32;;;9.13;;
52414;SDS011;38340;52.964;6.086;2022-09-09T01:50:22;13.90;;;9.95;;
52414;SDS011;38340;52.964;6.086;2022-09-09T01:52:52;10.30;;;8.85;;
52414;SDS011;38340;52.964;6.086;2022-09-09T01:55:24;12.00;;;8.85;;
52414;SDS011;38340;52.964;6.086;2022-09-09T02:03:55;16.83;;;9.27;;
52414;SDS011;38340;52.964;6.086;2022-09-09T02:06:30;14.43;;;9.25;;
52414;SDS011;38340;52.964;6.086;2022-09-09T02:09:00;13.82;;;9.10;;
52414;SDS011;38340;52.964;6.086;2022-09-09T02:11:29;14.88;;;9.65;;
52414;SDS011;38340;52.964;6.086;2022-09-09T02:13:57;13.77;;;9.07;;
52414;SDS011;38340;52.964;6.086;2022-09-09T02:16:35;12.68;;;9.05;;
52414;SDS011;38340;52.964;6.086;2022-09-09T02:19:19;13.90;;;9.18;;
52414;SDS011;38340;52.964;6.086;2022-09-09T02:21:53;14.73;;;9.98;;
52414;SDS011;38340;52.964;6.086;2022-09-09T02:24:21;14.30;;;10.73;;
52414;SDS011;38340;52.964;6.086;2022-09-09T02:26:49;18.25;;;9.57;;
52414;SDS011;38340;52.964;6.086;2022-09-09T02:29:52;18.38;;;10.45;;
52414;SDS011;38340;52.964;6.086;2022-09-09T02:32:14;17.13;;;11.18;;
52414;SDS011;38340;52.964;6.086;2022-09-09T02:34:43;16.35;;;11.43;;
52414;SDS011;38340;52.964;6.086;2022-09-09T02:37:15;14.98;;;10.43;;
52414;SDS011;38340;52.964;6.086;2022-09-09T02:39:43;15.75;;;11.10;;
52414;SDS011;38340;52.964;6.086;2022-09-09T02:42:09;17.70;;;10.70;;
52414;SDS011;38340;52.964;6.086;2022-09-09T02:44:35;18.45;;;11.60;;
52414;SDS011;38340;52.964;6.086;2022-09-09T02:49:50;16.25;;;10.65;;
52414;SDS011;38340;52.964;6.086;2022-09-09T02:52:26;14.80;;;10.13;;
52414;SDS011;38340;52.964;6.086;2022-09-09T02:55:45;16.63;;;11.23;;
52414;SDS011;38340;52.964;6.086;2022-09-09T02:58:03;18.65;;;11.77;;
52414;SDS011;38340;52.964;6.086;2022-09-09T03:00:32;19.23;;;10.90;;
52414;SDS011;38340;52.964;6.086;2022-09-09T03:03:01;18.33;;;11.57;;
52414;SDS011;38340;52.964;6.086;2022-09-09T03:05:28;15.13;;;11.15;;
52414;SDS011;38340;52.964;6.086;2022-09-09T03:07:54;17.50;;;12.45;;
52414;SDS011;38340;52.964;6.086;2022-09-09T03:10:20;15.95;;;11.00;;
52414;SDS011;38340;52.964;6.086;2022-09-09T03:12:45;19.15;;;11.90;;
52414;SDS011;38340;52.964;6.086;2022-09-09T03:15:11;15.50;;;10.98;;
52414;SDS011;38340;52.964;6.086;2022-09-09T03:17:37;17.25;;;12.15;;
52414;SDS011;38340;52.964;6.086;2022-09-09T03:20:03;17.00;;;11.40;;
52414;SDS011;38340;52.964;6.086;2022-09-09T03:22:29;16.08;;;11.13;;
52414;SDS011;38340;52.964;6.086;2022-09-09T03:24:55;14.82;;;10.85;;
52414;SDS011;38340;52.964;6.086;2022-09-09T03:27:20;18.63;;;12.25;;
52414;SDS011;38340;52.964;6.086;2022-09-09T03:29:46;25.58;;;11.77;;
52414;SDS011;38340;52.964;6.086;2022-09-09T03:32:12;14.80;;;11.18;;
52414;SDS011;38340;52.964;6.086;2022-09-09T03:34:38;20.45;;;10.77;;
52414;SDS011;38340;52.964;6.086;2022-09-09T03:37:07;15.43;;;10.98;;
52414;SDS011;38340;52.964;6.086;2022-09-09T03:39:32;13.48;;;10.43;;
52414;SDS011;38340;52.964;6.086;2022-09-09T03:41:58;14.10;;;10.38;;
52414;SDS011;38340;52.964;6.086;2022-09-09T03:44:24;14.93;;;10.25;;
52414;SDS011;38340;52.964;6.086;2022-09-09T03:46:49;13.07;;;9.88;;
52414;SDS011;38340;52.964;6.086;2022-09-09T03:49:15;14.82;;;10.38;;
52414;SDS011;38340;52.964;6.086;2022-09-09T03:51:41;14.73;;;10.48;;
52414;SDS011;38340;52.964;6.086;2022-09-09T03:54:07;13.30;;;10.02;;
52414;SDS011;38340;52.964;6.086;2022-09-09T03:56:35;17.35;;;10.32;;
52414;SDS011;38340;52.964;6.086;2022-09-09T03:59:01;13.60;;;10.02;;
52414;SDS011;38340;52.964;6.086;2022-09-09T04:01:28;12.98;;;9.25;;
52414;SDS011;38340;52.964;6.086;2022-09-09T04:03:54;15.18;;;9.13;;
52414;SDS011;38340;52.964;6.086;2022-09-09T04:06:23;14.82;;;9.13;;
52414;SDS011;38340;52.964;6.086;2022-09-09T04:08:49;14.23;;;8.60;;
52414;SDS011;38340;52.964;6.086;2022-09-09T04:11:17;14.75;;;9.18;;
52414;SDS011;38340;52.964;6.086;2022-09-09T04:13:43;12.43;;;9.00;;
52414;SDS011;38340;52.964;6.086;2022-09-09T04:16:10;15.32;;;9.05;;
52414;SDS011;38340;52.964;6.086;2022-09-09T04:18:36;13.52;;;8.80;;
52414;SDS011;38340;52.964;6.086;2022-09-09T04:21:02;13.18;;;9.15;;
52414;SDS011;38340;52.964;6.086;2022-09-09T04:23:29;13.35;;;9.45;;
52414;SDS011;38340;52.964;6.086;2022-09-09T04:25:56;15.25;;;9.80;;
52414;SDS011;38340;52.964;6.086;2022-09-09T04:28:24;17.17;;;10.05;;
52414;SDS011;38340;52.964;6.086;2022-09-09T04:30:51;15.50;;;10.40;;
52414;SDS011;38340;52.964;6.086;2022-09-09T04:33:17;16.30;;;11.02;;
52414;SDS011;38340;52.964;6.086;2022-09-09T04:35:48;16.63;;;10.70;;
52414;SDS011;38340;52.964;6.086;2022-09-09T04:38:15;199.98;;;28.55;;
52414;SDS011;38340;52.964;6.086;2022-09-09T04:40:48;14.07;;;11.00;;
52414;SDS011;38340;52.964;6.086;2022-09-09T04:43:14;17.48;;;11.48;;
52414;SDS011;38340;52.964;6.086;2022-09-09T04:45:41;18.08;;;12.15;;
52414;SDS011;38340;52.964;6.086;2022-09-09T04:48:08;14.52;;;10.70;;
52414;SDS011;38340;52.964;6.086;2022-09-09T04:50:34;17.30;;;10.98;;
52414;SDS011;38340;52.964;6.086;2022-09-09T04:53:01;53.55;;;13.05;;
52414;SDS011;38340;52.964;6.086;2022-09-09T04:55:27;17.88;;;10.77;;
52414;SDS011;38340;52.964;6.086;2022-09-09T04:57:53;16.88;;;10.95;;
52414;SDS011;38340;52.964;6.086;2022-09-09T05:00:19;15.85;;;10.88;;
52414;SDS011;38340;52.964;6.086;2022-09-09T05:02:45;22.88;;;12.05;;
52414;SDS011;38340;52.964;6.086;2022-09-09T05:05:12;15.15;;;10.45;;
52414;SDS011;38340;52.964;6.086;2022-09-09T05:07:37;15.93;;;10.90;;
52414;SDS011;38340;52.964;6.086;2022-09-09T05:10:03;15.52;;;10.40;;
52414;SDS011;38340;52.964;6.086;2022-09-09T05:12:30;15.98;;;10.82;;
52414;SDS011;38340;52.964;6.086;2022-09-09T05:14:56;17.45;;;10.48;;
52414;SDS011;38340;52.964;6.086;2022-09-09T05:17:22;17.35;;;11.35;;
52414;SDS011;38340;52.964;6.086;2022-09-09T05:19:48;19.85;;;10.93;;
52414;SDS011;38340;52.964;6.086;2022-09-09T05:22:18;14.85;;;10.82;;
52414;SDS011;38340;52.964;6.086;2022-09-09T05:24:45;15.05;;;10.80;;
52414;SDS011;38340;52.964;6.086;2022-09-09T05:27:11;14.70;;;10.00;;
52414;SDS011;38340;52.964;6.086;2022-09-09T05:29:37;15.57;;;10.07;;
52414;SDS011;38340;52.964;6.086;2022-09-09T05:32:03;17.20;;;10.32;;
52414;SDS011;38340;52.964;6.086;2022-09-09T05:34:29;16.48;;;11.13;;
52414;SDS011;38340;52.964;6.086;2022-09-09T05:36:55;15.25;;;10.30;;
52414;SDS011;38340;52.964;6.086;2022-09-09T05:39:21;15.75;;;10.15;;
52414;SDS011;38340;52.964;6.086;2022-09-09T05:41:46;14.13;;;10.18;;
52414;SDS011;38340;52.964;6.086;2022-09-09T05:44:12;16.30;;;10.88;;
52414;SDS011;38340;52.964;6.086;2022-09-09T05:46:38;15.80;;;10.95;;
52414;SDS011;38340;52.964;6.086;2022-09-09T05:49:04;14.48;;;10.35;;
52414;SDS011;38340;52.964;6.086;2022-09-09T05:51:31;16.05;;;10.98;;
52414;SDS011;38340;52.964;6.086;2022-09-09T05:53:57;17.33;;;11.75;;
52414;SDS011;38340;52.964;6.086;2022-09-09T05:56:24;17.15;;;11.63;;
52414;SDS011;38340;52.964;6.086;2022-09-09T05:58:52;18.40;;;11.43;;
52414;SDS011;38340;52.964;6.086;2022-09-09T06:03:46;14.98;;;10.93;;
52414;SDS011;38340;52.964;6.086;2022-09-09T06:06:14;16.38;;;10.98;;
52414;SDS011;38340;52.964;6.086;2022-09-09T06:09:02;15.60;;;11.32;;
52414;SDS011;38340;52.964;6.086;2022-09-09T06:11:31;16.10;;;10.57;;
52414;SDS011;38340;52.964;6.086;2022-09-09T06:13:58;16.40;;;11.80;;
52414;SDS011;38340;52.964;6.086;2022-09-09T06:16:26;16.85;;;11.13;;
52414;SDS011;38340;52.964;6.086;2022-09-09T06:18:53;15.18;;;11.98;;
52414;SDS011;38340;52.964;6.086;2022-09-09T06:21:24;18.08;;;11.82;;
52414;SDS011;38340;52.964;6.086;2022-09-09T06:23:52;19.00;;;10.98;;
52414;SDS011;38340;52.964;6.086;2022-09-09T06:26:19;16.70;;;11.57;;
52414;SDS011;38340;52.964;6.086;2022-09-09T06:28:47;17.67;;;12.05;;
52414;SDS011;38340;52.964;6.086;2022-09-09T06:31:17;15.48;;;11.43;;
52414;SDS011;38340;52.964;6.086;2022-09-09T06:33:48;17.65;;;11.25;;
52414;SDS011;38340;52.964;6.086;2022-09-09T06:36:18;16.27;;;10.38;;
52414;SDS011;38340;52.964;6.086;2022-09-09T06:38:46;15.60;;;10.52;;
52414;SDS011;38340;52.964;6.086;2022-09-09T06:41:13;14.90;;;10.55;;
52414;SDS011;38340;52.964;6.086;2022-09-09T06:43:40;20.02;;;10.77;;
52414;SDS011;38340;52.964;6.086;2022-09-09T06:46:08;14.45;;;10.27;;
52414;SDS011;38340;52.964;6.086;2022-09-09T06:48:35;16.35;;;10.35;;
52414;SDS011;38340;52.964;6.086;2022-09-09T06:51:04;16.50;;;9.73;;
52414;SDS011;38340;52.964;6.086;2022-09-09T06:53:30;12.50;;;9.93;;
52414;SDS011;38340;52.964;6.086;2022-09-09T06:55:59;14.57;;;9.73;;
52414;SDS011;38340;52.964;6.086;2022-09-09T06:58:27;13.50;;;9.93;;
52414;SDS011;38340;52.964;6.086;2022-09-09T07:01:01;12.30;;;9.40;;
52414;SDS011;38340;52.964;6.086;2022-09-09T07:05:54;12.80;;;9.55;;
52414;SDS011;38340;52.964;6.086;2022-09-09T07:08:21;13.95;;;9.50;;
52414;SDS011;38340;52.964;6.086;2022-09-09T07:10:47;12.15;;;9.02;;
52414;SDS011;38340;52.964;6.086;2022-09-09T07:13:13;11.88;;;8.52;;
52414;SDS011;38340;52.964;6.086;2022-09-09T07:15:40;12.77;;;9.50;;
52414;SDS011;38340;52.964;6.086;2022-09-09T07:18:07;16.80;;;8.98;;
52414;SDS011;38340;52.964;6.086;2022-09-09T07:20:34;11.75;;;8.93;;
52414;SDS011;38340;52.964;6.086;2022-09-09T07:22:59;11.48;;;8.38;;
52414;SDS011;38340;52.964;6.086;2022-09-09T07:25:25;13.60;;;9.23;;
52414;SDS011;38340;52.964;6.086;2022-09-09T07:27:54;11.73;;;9.02;;
52414;SDS011;38340;52.964;6.086;2022-09-09T07:30:20;13.13;;;8.45;;
52414;SDS011;38340;52.964;6.086;2022-09-09T07:32:46;12.90;;;8.55;;
52414;SDS011;38340;52.964;6.086;2022-09-09T07:35:12;11.18;;;9.07;;
52414;SDS011;38340;52.964;6.086;2022-09-09T07:37:37;12.63;;;8.75;;
52414;SDS011;38340;52.964;6.086;2022-09-09T07:40:03;11.52;;;8.80;;
52414;SDS011;38340;52.964;6.086;2022-09-09T07:42:30;13.05;;;8.77;;
52414;SDS011;38340;52.964;6.086;2022-09-09T07:44:56;11.23;;;7.93;;
52414;SDS011;38340;52.964;6.086;2022-09-09T07:47:22;13.18;;;8.88;;
52414;SDS011;38340;52.964;6.086;2022-09-09T07:49:49;9.40;;;8.15;;
52414;SDS011;38340;52.964;6.086;2022-09-09T07:52:15;12.43;;;8.27;;
52414;SDS011;38340;52.964;6.086;2022-09-09T07:54:41;11.10;;;8.82;;
52414;SDS011;38340;52.964;6.086;2022-09-09T07:57:10;12.77;;;8.85;;
52414;SDS011;38340;52.964;6.086;2022-09-09T07:59:37;12.23;;;8.63;;
52414;SDS011;38340;52.964;6.086;2022-09-09T08:02:03;13.38;;;8.95;;
52414;SDS011;38340;52.964;6.086;2022-09-09T08:04:29;12.77;;;8.80;;
52414;SDS011;38340;52.964;6.086;2022-09-09T08:06:57;13.52;;;8.02;;
52414;SDS011;38340;52.964;6.086;2022-09-09T08:09:25;12.15;;;8.35;;
52414;SDS011;38340;52.964;6.086;2022-09-09T08:11:53;11.75;;;8.43;;
52414;SDS011;38340;52.964;6.086;2022-09-09T08:14:21;9.35;;;7.47;;
52414;SDS011;38340;52.964;6.086;2022-09-09T08:16:48;11.52;;;7.60;;
52414;SDS011;38340;52.964;6.086;2022-09-09T08:19:15;9.85;;;6.88;;
52414;SDS011;38340;52.964;6.086;2022-09-09T08:21:41;11.23;;;7.20;;
52414;SDS011;38340;52.964;6.086;2022-09-09T08:24:09;11.00;;;6.32;;
52414;SDS011;38340;52.964;6.086;2022-09-09T08:26:41;11.73;;;6.35;;
52414;SDS011;38340;52.964;6.086;2022-09-09T08:29:09;11.80;;;6.05;;
52414;SDS011;38340;52.964;6.086;2022-09-09T08:31:55;9.45;;;6.35;;
52414;SDS011;38340;52.964;6.086;2022-09-09T08:34:23;15.90;;;6.53;;
52414;SDS011;38340;52.964;6.086;2022-09-09T08:36:51;10.70;;;6.05;;
52414;SDS011;38340;52.964;6.086;2022-09-09T08:39:17;11.85;;;5.90;;
52414;SDS011;38340;52.964;6.086;2022-09-09T08:47:33;13.73;;;4.80;;
52414;SDS011;38340;52.964;6.086;2022-09-09T08:50:27;9.35;;;5.18;;
52414;SDS011;38340;52.964;6.086;2022-09-09T08:53:00;13.57;;;4.85;;
52414;SDS011;38340;52.964;6.086;2022-09-09T08:55:37;7.13;;;4.13;;
52414;SDS011;38340;52.964;6.086;2022-09-09T09:11:50;8.70;;;4.72;;
52414;SDS011;38340;52.964;6.086;2022-09-09T09:19:34;7.25;;;4.13;;
52414;SDS011;38340;52.964;6.086;2022-09-09T09:22:06;9.60;;;4.03;;
52414;SDS011;38340;52.964;6.086;2022-09-09T09:25:16;13.02;;;4.25;;
52414;SDS011;38340;52.964;6.086;2022-09-09T09:30:26;10.10;;;3.83;;
52414;SDS011;38340;52.964;6.086;2022-09-09T09:33:05;13.13;;;4.00;;
52414;SDS011;38340;52.964;6.086;2022-09-09T09:35:40;7.63;;;3.85;;
52414;SDS011;38340;52.964;6.086;2022-09-09T09:38:19;7.00;;;3.45;;
52414;SDS011;38340;52.964;6.086;2022-09-09T09:40:50;9.30;;;3.20;;
52414;SDS011;38340;52.964;6.086;2022-09-09T09:43:21;7.00;;;3.35;;
52414;SDS011;38340;52.964;6.086;2022-09-09T09:45:51;6.07;;;3.03;;
52414;SDS011;38340;52.964;6.086;2022-09-09T09:48:17;9.63;;;3.50;;
52414;SDS011;38340;52.964;6.086;2022-09-09T09:50:52;8.15;;;3.35;;
52414;SDS011;38340;52.964;6.086;2022-09-09T09:53:28;7.05;;;3.20;;
52414;SDS011;38340;52.964;6.086;2022-09-09T09:56:05;11.32;;;3.67;;
52414;SDS011;38340;52.964;6.086;2022-09-09T09:58:55;11.35;;;3.45;;
52414;SDS011;38340;52.964;6.086;2022-09-09T10:01:21;7.25;;;3.58;;
52414;SDS011;38340;52.964;6.086;2022-09-09T10:04:00;7.38;;;3.55;;
52414;SDS011;38340;52.964;6.086;2022-09-09T10:06:48;8.68;;;3.58;;
52414;SDS011;38340;52.964;6.086;2022-09-09T10:09:30;7.00;;;2.83;;
52414;SDS011;38340;52.964;6.086;2022-09-09T10:26:03;10.18;;;3.25;;
52414;SDS011;38340;52.964;6.086;2022-09-09T10:29:14;7.38;;;2.75;;
52414;SDS011;38340;52.964;6.086;2022-09-09T10:31:45;8.27;;;2.65;;
52414;SDS011;38340;52.964;6.086;2022-09-09T10:40:32;8.67;;;2.60;;
52414;SDS011;38340;52.964;6.086;2022-09-09T10:43:46;7.47;;;2.45;;
52414;SDS011;38340;52.964;6.086;2022-09-09T10:46:10;9.50;;;2.55;;
52414;SDS011;38340;52.964;6.086;2022-09-09T10:48:58;7.90;;;2.85;;
52414;SDS011;38340;52.964;6.086;2022-09-09T10:51:33;6.22;;;2.30;;
52414;SDS011;38340;52.964;6.086;2022-09-09T10:54:30;5.18;;;2.20;;
52414;SDS011;38340;52.964;6.086;2022-09-09T10:57:14;5.20;;;2.20;;
52414;SDS011;38340;52.964;6.086;2022-09-09T10:59:48;5.22;;;2.42;;
52414;SDS011;38340;52.964;6.086;2022-09-09T11:02:24;5.13;;;2.10;;
52414;SDS011;38340;52.964;6.086;2022-09-09T11:05:04;9.02;;;2.50;;
52414;SDS011;38340;52.964;6.086;2022-09-09T11:13:08;5.75;;;2.28;;
52414;SDS011;38340;52.964;6.086;2022-09-09T11:16:02;9.77;;;2.47;;
52414;SDS011;38340;52.964;6.086;2022-09-09T11:18:40;7.15;;;2.47;;
52414;SDS011;38340;52.964;6.086;2022-09-09T11:21:10;8.25;;;2.83;;
52414;SDS011;38340;52.964;6.086;2022-09-09T11:24:03;11.50;;;3.45;;
52414;SDS011;38340;52.964;6.086;2022-09-09T11:26:39;7.93;;;2.97;;
52414;SDS011;38340;52.964;6.086;2022-09-09T11:34:14;6.95;;;2.85;;
52414;SDS011;38340;52.964;6.086;2022-09-09T11:44:39;8.05;;;3.28;;
52414;SDS011;38340;52.964;6.086;2022-09-09T11:47:26;6.93;;;3.33;;
52414;SDS011;38340;52.964;6.086;2022-09-09T11:52:41;10.18;;;3.38;;
52414;SDS011;38340;52.964;6.086;2022-09-09T11:55:29;8.07;;;3.35;;
52414;SDS011;38340;52.964;6.086;2022-09-09T11:58:19;7.72;;;3.35;;
52414;SDS011;38340;52.964;6.086;2022-09-09T12:00:45;6.80;;;2.97;;
52414;SDS011;38340;52.964;6.086;2022-09-09T12:05:59;5.80;;;3.20;;
52414;SDS011;38340;52.964;6.086;2022-09-09T12:08:36;7.63;;;3.15;;
52414;SDS011;38340;52.964;6.086;2022-09-09T12:11:05;7.22;;;2.83;;
52414;SDS011;38340;52.964;6.086;2022-09-09T12:13:32;6.85;;;2.90;;
52414;SDS011;38340;52.964;6.086;2022-09-09T12:15:58;6.32;;;2.80;;
52414;SDS011;38340;52.964;6.086;2022-09-09T12:23:38;6.60;;;2.40;;
52414;SDS011;38340;52.964;6.086;2022-09-09T12:31:47;10.25;;;2.83;;
52414;SDS011;38340;52.964;6.086;2022-09-09T12:34:32;9.15;;;2.90;;
52414;SDS011;38340;52.964;6.086;2022-09-09T12:37:15;5.40;;;2.22;;
52414;SDS011;38340;52.964;6.086;2022-09-09T12:39:59;7.80;;;2.58;;
52414;SDS011;38340;52.964;6.086;2022-09-09T12:42:27;6.13;;;2.80;;
52414;SDS011;38340;52.964;6.086;2022-09-09T12:47:28;7.15;;;2.72;;
52414;SDS011;38340;52.964;6.086;2022-09-09T12:49:55;6.13;;;2.58;;
52414;SDS011;38340;52.964;6.086;2022-09-09T12:54:50;15.82;;;4.30;;
52414;SDS011;38340;52.964;6.086;2022-09-09T12:57:18;12.02;;;3.70;;
52414;SDS011;38340;52.964;6.086;2022-09-09T12:59:47;8.75;;;3.67;;
52414;SDS011;38340;52.964;6.086;2022-09-09T13:02:22;9.13;;;3.60;;
52414;SDS011;38340;52.964;6.086;2022-09-09T13:04:50;8.35;;;3.55;;
52414;SDS011;38340;52.964;6.086;2022-09-09T13:07:17;8.05;;;3.20;;
52414;SDS011;38340;52.964;6.086;2022-09-09T13:09:44;7.97;;;4.15;;
52414;SDS011;38340;52.964;6.086;2022-09-09T13:12:16;10.48;;;3.20;;
52414;SDS011;38340;52.964;6.086;2022-09-09T13:14:45;5.15;;;2.47;;
52414;SDS011;38340;52.964;6.086;2022-09-09T13:17:26;4.25;;;1.80;;
52414;SDS011;38340;52.964;6.086;2022-09-09T13:19:54;5.35;;;1.90;;
52414;SDS011;38340;52.964;6.086;2022-09-09T13:22:34;4.05;;;1.65;;
52414;SDS011;38340;52.964;6.086;2022-09-09T13:25:06;4.38;;;1.80;;
52414;SDS011;38340;52.964;6.086;2022-09-09T13:28:00;7.72;;;2.75;;
52414;SDS011;38340;52.964;6.086;2022-09-09T13:35:58;7.10;;;2.70;;
52414;SDS011;38340;52.964;6.086;2022-09-09T13:38:28;5.78;;;2.05;;
52414;SDS011;38340;52.964;6.086;2022-09-09T13:40:56;5.63;;;2.50;;
52414;SDS011;38340;52.964;6.086;2022-09-09T13:43:26;4.28;;;2.10;;
52414;SDS011;38340;52.964;6.086;2022-09-09T13:45:54;5.57;;;1.92;;
52414;SDS011;38340;52.964;6.086;2022-09-09T13:48:25;3.92;;;1.92;;
52414;SDS011;38340;52.964;6.086;2022-09-09T13:50:55;4.05;;;1.60;;
52414;SDS011;38340;52.964;6.086;2022-09-09T13:53:22;5.20;;;2.30;;
52414;SDS011;38340;52.964;6.086;2022-09-09T13:55:48;4.50;;;1.58;;
52414;SDS011;38340;52.964;6.086;2022-09-09T13:58:15;7.25;;;2.53;;
52414;SDS011;38340;52.964;6.086;2022-09-09T14:00:43;5.32;;;1.90;;
52414;SDS011;38340;52.964;6.086;2022-09-09T14:03:09;4.70;;;2.13;;
52414;SDS011;38340;52.964;6.086;2022-09-09T14:05:35;3.70;;;1.65;;
52414;SDS011;38340;52.964;6.086;2022-09-09T14:08:03;6.82;;;2.00;;
52414;SDS011;38340;52.964;6.086;2022-09-09T14:10:30;5.43;;;2.25;;
52414;SDS011;38340;52.964;6.086;2022-09-09T14:12:56;4.97;;;2.00;;
52414;SDS011;38340;52.964;6.086;2022-09-09T14:15:21;5.70;;;2.10;;
52414;SDS011;38340;52.964;6.086;2022-09-09T14:17:47;5.18;;;2.05;;
52414;SDS011;38340;52.964;6.086;2022-09-09T14:20:13;5.57;;;2.00;;
52414;SDS011;38340;52.964;6.086;2022-09-09T14:22:40;4.55;;;2.40;;
52414;SDS011;38340;52.964;6.086;2022-09-09T14:25:06;6.78;;;2.97;;
52414;SDS011;38340;52.964;6.086;2022-09-09T14:27:33;10.50;;;2.75;;
52414;SDS011;38340;52.964;6.086;2022-09-09T14:29:59;6.88;;;2.90;;
52414;SDS011;38340;52.964;6.086;2022-09-09T14:32:25;5.75;;;2.60;;
52414;SDS011;38340;52.964;6.086;2022-09-09T14:34:52;6.95;;;2.72;;
52414;SDS011;38340;52.964;6.086;2022-09-09T14:37:17;4.55;;;2.10;;
52414;SDS011;38340;52.964;6.086;2022-09-09T14:39:44;6.05;;;2.40;;
52414;SDS011;38340;52.964;6.086;2022-09-09T14:42:11;5.90;;;2.30;;
52414;SDS011;38340;52.964;6.086;2022-09-09T14:44:38;5.22;;;2.53;;
52414;SDS011;38340;52.964;6.086;2022-09-09T14:47:04;4.93;;;1.90;;
52414;SDS011;38340;52.964;6.086;2022-09-09T14:49:30;3.47;;;1.90;;
52414;SDS011;38340;52.964;6.086;2022-09-09T14:51:56;6.60;;;2.03;;
52414;SDS011;38340;52.964;6.086;2022-09-09T14:54:22;7.40;;;2.28;;
52414;SDS011;38340;52.964;6.086;2022-09-09T14:56:48;4.57;;;2.03;;
52414;SDS011;38340;52.964;6.086;2022-09-09T14:59:14;4.55;;;2.42;;
52414;SDS011;38340;52.964;6.086;2022-09-09T15:01:39;6.50;;;2.78;;
52414;SDS011;38340;52.964;6.086;2022-09-09T15:04:06;5.63;;;2.45;;
52414;SDS011;38340;52.964;6.086;2022-09-09T15:06:32;3.80;;;1.95;;
52414;SDS011;38340;52.964;6.086;2022-09-09T15:09:01;6.75;;;2.10;;
52414;SDS011;38340;52.964;6.086;2022-09-09T15:11:28;3.67;;;1.95;;
52414;SDS011;38340;52.964;6.086;2022-09-09T15:13:55;3.55;;;2.17;;
52414;SDS011;38340;52.964;6.086;2022-09-09T15:16:24;3.60;;;1.83;;
52414;SDS011;38340;52.964;6.086;2022-09-09T15:18:52;4.05;;;2.20;;
52414;SDS011;38340;52.964;6.086;2022-09-09T15:21:20;4.70;;;2.25;;
52414;SDS011;38340;52.964;6.086;2022-09-09T15:23:47;4.47;;;2.25;;
52414;SDS011;38340;52.964;6.086;2022-09-09T15:26:14;4.70;;;2.50;;
52414;SDS011;38340;52.964;6.086;2022-09-09T15:28:40;5.32;;;2.17;;
52414;SDS011;38340;52.964;6.086;2022-09-09T15:31:21;6.32;;;2.40;;
52414;SDS011;38340;52.964;6.086;2022-09-09T15:36:24;6.03;;;2.67;;
52414;SDS011;38340;52.964;6.086;2022-09-09T15:38:51;6.97;;;3.15;;
52414;SDS011;38340;52.964;6.086;2022-09-09T15:41:18;6.05;;;2.72;;
52414;SDS011;38340;52.964;6.086;2022-09-09T15:43:46;5.28;;;3.13;;
52414;SDS011;38340;52.964;6.086;2022-09-09T15:48:42;5.53;;;2.92;;
52414;SDS011;38340;52.964;6.086;2022-09-09T15:51:09;5.35;;;3.10;;
52414;SDS011;38340;52.964;6.086;2022-09-09T15:53:36;7.38;;;3.10;;
52414;SDS011;38340;52.964;6.086;2022-09-09T15:56:04;8.45;;;3.53;;
52414;SDS011;38340;52.964;6.086;2022-09-09T15:58:31;4.78;;;3.15;;
52414;SDS011;38340;52.964;6.086;2022-09-09T16:01:01;5.60;;;3.28;;
52414;SDS011;38340;52.964;6.086;2022-09-09T16:03:41;7.43;;;5.65;;
52414;SDS011;38340;52.964;6.086;2022-09-09T16:06:07;6.68;;;3.65;;
52414;SDS011;38340;52.964;6.086;2022-09-09T16:08:38;4.97;;;3.50;;
52414;SDS011;38340;52.964;6.086;2022-09-09T16:11:12;6.35;;;3.38;;
52414;SDS011;38340;52.964;6.086;2022-09-09T16:13:44;8.90;;;3.25;;
52414;SDS011;38340;52.964;6.086;2022-09-09T16:16:10;5.80;;;3.83;;
52414;SDS011;38340;52.964;6.086;2022-09-09T16:18:40;7.60;;;3.33;;
52414;SDS011;38340;52.964;6.086;2022-09-09T16:21:08;7.07;;;3.80;;
52414;SDS011;38340;52.964;6.086;2022-09-09T16:23:43;12.77;;;3.85;;
52414;SDS011;38340;52.964;6.086;2022-09-09T16:26:13;8.63;;;4.07;;
52414;SDS011;38340;52.964;6.086;2022-09-09T16:28:40;7.43;;;3.67;;
52414;SDS011;38340;52.964;6.086;2022-09-09T16:31:06;5.25;;;2.58;;
52414;SDS011;38340;52.964;6.086;2022-09-09T16:33:35;5.07;;;2.90;;
52414;SDS011;38340;52.964;6.086;2022-09-09T16:36:07;7.45;;;3.85;;
52414;SDS011;38340;52.964;6.086;2022-09-09T16:38:35;5.38;;;3.35;;
52414;SDS011;38340;52.964;6.086;2022-09-09T16:41:02;8.05;;;3.70;;
52414;SDS011;38340;52.964;6.086;2022-09-09T16:43:31;5.63;;;3.10;;
52414;SDS011;38340;52.964;6.086;2022-09-09T16:46:01;6.38;;;3.13;;
52414;SDS011;38340;52.964;6.086;2022-09-09T16:48:40;7.63;;;3.65;;
52414;SDS011;38340;52.964;6.086;2022-09-09T16:51:09;6.00;;;3.08;;
52414;SDS011;38340;52.964;6.086;2022-09-09T16:53:41;4.80;;;3.20;;
52414;SDS011;38340;52.964;6.086;2022-09-09T16:56:08;5.75;;;3.40;;
52414;SDS011;38340;52.964;6.086;2022-09-09T16:58:35;6.25;;;2.83;;
52414;SDS011;38340;52.964;6.086;2022-09-09T17:01:02;6.20;;;3.30;;
52414;SDS011;38340;52.964;6.086;2022-09-09T17:03:29;7.57;;;4.07;;
52414;SDS011;38340;52.964;6.086;2022-09-09T17:05:56;5.57;;;4.32;;
52414;SDS011;38340;52.964;6.086;2022-09-09T17:08:23;5.80;;;3.63;;
52414;SDS011;38340;52.964;6.086;2022-09-09T17:10:49;7.20;;;3.60;;
52414;SDS011;38340;52.964;6.086;2022-09-09T17:13:15;9.93;;;3.80;;
52414;SDS011;38340;52.964;6.086;2022-09-09T17:15:44;4.70;;;3.40;;
52414;SDS011;38340;52.964;6.086;2022-09-09T17:18:11;6.60;;;3.05;;
52414;SDS011;38340;52.964;6.086;2022-09-09T17:20:40;5.32;;;3.15;;
52414;SDS011;38340;52.964;6.086;2022-09-09T17:23:07;5.00;;;2.97;;
52414;SDS011;38340;52.964;6.086;2022-09-09T17:25:34;7.18;;;3.40;;